sensor_id;sensor_type;location;lat;lon;timestamp;P1;durP1;ratioP1;P2;durP2;ratioP2
13171;SDS011;6651;53.200;10.432;2022-08-20T00:00:39;10.75;;;9.82;;
13171;SDS011;6651;53.200;10.432;2022-08-20T00:03:16;10.20;;;9.30;;
13171;SDS011;6651;53.200;10.432;2022-08-20T00:05:53;8.38;;;7.68;;
13171;SDS011;6651;53.200;10.432;2022-08-20T00:08:31;8.23;;;7.53;;
13171;SDS011;6651;53.200;10.432;2022-08-20T00:10:58;8.25;;;7.45;;
13171;SDS011;6651;53.200;10.432;2022-08-20T00:13:27;8.57;;;7.88;;
13171;SDS011;6651;53.200;10.432;2022-08-20T00:15:57;9.27;;;8.48;;
13171;SDS011;6651;53.200;10.432;2022-08-20T00:18:23;10.82;;;9.82;;
13171;SDS011;6651;53.200;10.432;2022-08-20T00:20:51;10.77;;;9.45;;
13171;SDS011;6651;53.200;10.432;2022-08-20T00:23:19;10.15;;;9.25;;
13171;SDS011;6651;53.200;10.432;2022-08-20T00:25:45;9.90;;;8.90;;
13171;SDS011;6651;53.200;10.432;2022-08-20T00:28:11;9.50;;;8.70;;
13171;SDS011;6651;53.200;10.432;2022-08-20T00:30:38;10.80;;;9.70;;
13171;SDS011;6651;53.200;10.432;2022-08-20T00:33:06;10.60;;;9.60;;
13171;SDS011;6651;53.200;10.432;2022-08-20T00:35:36;10.65;;;9.65;;
13171;SDS011;6651;53.200;10.432;2022-08-20T00:38:04;10.02;;;9.13;;
13171;SDS011;6651;53.200;10.432;2022-08-20T00:40:35;10.93;;;9.93;;
13171;SDS011;6651;53.200;10.432;2022-08-20T00:43:04;11.23;;;10.15;;
13171;SDS011;6651;53.200;10.432;2022-08-20T00:45:33;10.10;;;9.20;;
13171;SDS011;6651;53.200;10.432;2022-08-20T00:48:00;11.35;;;10.25;;
13171;SDS011;6651;53.200;10.432;2022-08-20T00:50:29;10.75;;;9.77;;
13171;SDS011;6651;53.200;10.432;2022-08-20T00:52:58;10.73;;;9.73;;
13171;SDS011;6651;53.200;10.432;2022-08-20T00:55:26;11.23;;;10.32;;
13171;SDS011;6651;53.200;10.432;2022-08-20T00:57:56;12.50;;;11.40;;
13171;SDS011;6651;53.200;10.432;2022-08-20T01:00:27;12.15;;;11.05;;
13171;SDS011;6651;53.200;10.432;2022-08-20T01:02:55;12.15;;;11.05;;
13171;SDS011;6651;53.200;10.432;2022-08-20T01:05:21;11.10;;;10.10;;
13171;SDS011;6651;53.200;10.432;2022-08-20T01:07:48;11.05;;;10.07;;
13171;SDS011;6651;53.200;10.432;2022-08-20T01:10:20;11.02;;;10.07;;
13171;SDS011;6651;53.200;10.432;2022-08-20T01:12:48;10.55;;;9.50;;
13171;SDS011;6651;53.200;10.432;2022-08-20T01:15:16;11.65;;;10.48;;
13171;SDS011;6651;53.200;10.432;2022-08-20T01:17:47;12.00;;;11.00;;
13171;SDS011;6651;53.200;10.432;2022-08-20T01:20:15;12.90;;;11.68;;
13171;SDS011;6651;53.200;10.432;2022-08-20T01:28:48;11.48;;;10.38;;
13171;SDS011;6651;53.200;10.432;2022-08-20T01:31:18;11.30;;;10.20;;
13171;SDS011;6651;53.200;10.432;2022-08-20T01:33:47;12.30;;;11.20;;
13171;SDS011;6651;53.200;10.432;2022-08-20T01:36:15;13.05;;;11.82;;
13171;SDS011;6651;53.200;10.432;2022-08-20T01:38:45;12.65;;;11.48;;
13171;SDS011;6651;53.200;10.432;2022-08-20T01:43:40;11.93;;;10.82;;
13171;SDS011;6651;53.200;10.432;2022-08-20T01:46:08;11.63;;;10.63;;
13171;SDS011;6651;53.200;10.432;2022-08-20T01:48:34;12.02;;;11.00;;
13171;SDS011;6651;53.200;10.432;2022-08-20T01:51:09;12.85;;;11.60;;
13171;SDS011;6651;53.200;10.432;2022-08-20T01:53:42;13.30;;;12.20;;
13171;SDS011;6651;53.200;10.432;2022-08-20T01:56:12;13.95;;;12.55;;
13171;SDS011;6651;53.200;10.432;2022-08-20T01:58:41;13.57;;;12.38;;
13171;SDS011;6651;53.200;10.432;2022-08-20T02:01:17;12.48;;;11.38;;
13171;SDS011;6651;53.200;10.432;2022-08-20T02:03:49;12.93;;;11.73;;
13171;SDS011;6651;53.200;10.432;2022-08-20T02:06:14;13.00;;;11.90;;
13171;SDS011;6651;53.200;10.432;2022-08-20T02:08:41;14.73;;;13.52;;
13171;SDS011;6651;53.200;10.432;2022-08-20T02:11:08;14.82;;;13.52;;
13171;SDS011;6651;53.200;10.432;2022-08-20T02:13:34;15.23;;;13.88;;
13171;SDS011;6651;53.200;10.432;2022-08-20T02:16:00;14.18;;;12.98;;
13171;SDS011;6651;53.200;10.432;2022-08-20T02:18:26;12.43;;;11.30;;
13171;SDS011;6651;53.200;10.432;2022-08-20T02:20:51;12.85;;;11.75;;
13171;SDS011;6651;53.200;10.432;2022-08-20T02:23:18;13.32;;;12.13;;
13171;SDS011;6651;53.200;10.432;2022-08-20T02:25:44;11.98;;;10.98;;
13171;SDS011;6651;53.200;10.432;2022-08-20T02:28:12;12.50;;;11.40;;
13171;SDS011;6651;53.200;10.432;2022-08-20T02:30:45;12.98;;;11.80;;
13171;SDS011;6651;53.200;10.432;2022-08-20T02:33:14;14.27;;;12.95;;
13171;SDS011;6651;53.200;10.432;2022-08-20T02:35:43;13.15;;;11.95;;
13171;SDS011;6651;53.200;10.432;2022-08-20T02:38:11;12.93;;;11.82;;
13171;SDS011;6651;53.200;10.432;2022-08-20T02:40:39;11.07;;;10.13;;
13171;SDS011;6651;53.200;10.432;2022-08-20T02:43:05;12.07;;;10.98;;
13171;SDS011;6651;53.200;10.432;2022-08-20T02:45:32;11.63;;;10.57;;
13171;SDS011;6651;53.200;10.432;2022-08-20T02:48:07;12.40;;;11.25;;
13171;SDS011;6651;53.200;10.432;2022-08-20T02:50:34;12.52;;;11.40;;
13171;SDS011;6651;53.200;10.432;2022-08-20T02:52:59;14.02;;;12.73;;
13171;SDS011;6651;53.200;10.432;2022-08-20T02:55:25;12.30;;;11.20;;
13171;SDS011;6651;53.200;10.432;2022-08-20T02:57:51;12.25;;;11.15;;
13171;SDS011;6651;53.200;10.432;2022-08-20T03:00:19;11.32;;;10.32;;
13171;SDS011;6651;53.200;10.432;2022-08-20T03:02:46;13.25;;;12.05;;
13171;SDS011;6651;53.200;10.432;2022-08-20T03:05:13;11.88;;;10.85;;
13171;SDS011;6651;53.200;10.432;2022-08-20T03:07:45;12.57;;;11.48;;
13171;SDS011;6651;53.200;10.432;2022-08-20T03:10:13;13.82;;;12.60;;
13171;SDS011;6651;53.200;10.432;2022-08-20T03:12:39;12.95;;;11.90;;
13171;SDS011;6651;53.200;10.432;2022-08-20T03:15:06;12.38;;;11.20;;
13171;SDS011;6651;53.200;10.432;2022-08-20T03:17:34;12.85;;;11.63;;
13171;SDS011;6651;53.200;10.432;2022-08-20T03:20:00;12.00;;;10.90;;
13171;SDS011;6651;53.200;10.432;2022-08-20T03:22:26;12.55;;;11.45;;
13171;SDS011;6651;53.200;10.432;2022-08-20T03:24:52;12.35;;;11.25;;
13171;SDS011;6651;53.200;10.432;2022-08-20T03:27:18;12.95;;;11.85;;
13171;SDS011;6651;53.200;10.432;2022-08-20T03:29:43;15.73;;;14.23;;
13171;SDS011;6651;53.200;10.432;2022-08-20T03:32:09;14.20;;;12.88;;
13171;SDS011;6651;53.200;10.432;2022-08-20T03:34:34;15.63;;;14.10;;
13171;SDS011;6651;53.200;10.432;2022-08-20T03:37:00;17.42;;;15.82;;
13171;SDS011;6651;53.200;10.432;2022-08-20T03:39:26;13.95;;;12.65;;
13171;SDS011;6651;53.200;10.432;2022-08-20T03:41:52;13.68;;;12.50;;
13171;SDS011;6651;53.200;10.432;2022-08-20T03:44:18;14.70;;;13.38;;
13171;SDS011;6651;53.200;10.432;2022-08-20T03:46:43;13.07;;;11.98;;
13171;SDS011;6651;53.200;10.432;2022-08-20T03:49:09;13.23;;;12.13;;
13171;SDS011;6651;53.200;10.432;2022-08-20T03:51:35;13.07;;;11.88;;
13171;SDS011;6651;53.200;10.432;2022-08-20T03:54:00;13.07;;;11.88;;
13171;SDS011;6651;53.200;10.432;2022-08-20T03:56:26;12.88;;;11.77;;
13171;SDS011;6651;53.200;10.432;2022-08-20T03:58:53;13.10;;;12.00;;
13171;SDS011;6651;53.200;10.432;2022-08-20T04:01:19;14.25;;;13.05;;
13171;SDS011;6651;53.200;10.432;2022-08-20T04:03:44;13.73;;;12.43;;
13171;SDS011;6651;53.200;10.432;2022-08-20T04:06:11;13.57;;;12.48;;
13171;SDS011;6651;53.200;10.432;2022-08-20T04:08:37;13.70;;;12.52;;
13171;SDS011;6651;53.200;10.432;2022-08-20T04:11:05;14.52;;;13.23;;
13171;SDS011;6651;53.200;10.432;2022-08-20T04:13:30;16.88;;;15.20;;
13171;SDS011;6651;53.200;10.432;2022-08-20T04:15:56;14.57;;;13.07;;
13171;SDS011;6651;53.200;10.432;2022-08-20T04:18:23;15.65;;;14.25;;
13171;SDS011;6651;53.200;10.432;2022-08-20T04:20:50;15.13;;;12.70;;
13171;SDS011;6651;53.200;10.432;2022-08-20T04:23:16;13.60;;;12.35;;
13171;SDS011;6651;53.200;10.432;2022-08-20T04:25:43;14.73;;;13.32;;
13171;SDS011;6651;53.200;10.432;2022-08-20T04:28:12;14.13;;;12.88;;
13171;SDS011;6651;53.200;10.432;2022-08-20T04:30:51;14.60;;;13.30;;
13171;SDS011;6651;53.200;10.432;2022-08-20T04:33:18;13.10;;;12.00;;
13171;SDS011;6651;53.200;10.432;2022-08-20T04:35:44;11.63;;;10.63;;
13171;SDS011;6651;53.200;10.432;2022-08-20T04:38:15;12.57;;;11.38;;
13171;SDS011;6651;53.200;10.432;2022-08-20T04:40:42;12.70;;;11.60;;
13171;SDS011;6651;53.200;10.432;2022-08-20T04:43:17;13.82;;;12.55;;
13171;SDS011;6651;53.200;10.432;2022-08-20T04:45:49;13.70;;;12.43;;
13171;SDS011;6651;53.200;10.432;2022-08-20T04:48:19;12.10;;;10.90;;
13171;SDS011;6651;53.200;10.432;2022-08-20T04:50:48;13.23;;;12.13;;
13171;SDS011;6651;53.200;10.432;2022-08-20T04:53:15;14.18;;;12.88;;
13171;SDS011;6651;53.200;10.432;2022-08-20T04:55:42;13.70;;;12.07;;
13171;SDS011;6651;53.200;10.432;2022-08-20T04:58:17;13.77;;;12.38;;
13171;SDS011;6651;53.200;10.432;2022-08-20T05:00:50;13.57;;;12.38;;
13171;SDS011;6651;53.200;10.432;2022-08-20T05:03:18;14.98;;;13.52;;
13171;SDS011;6651;53.200;10.432;2022-08-20T05:05:44;16.05;;;14.43;;
13171;SDS011;6651;53.200;10.432;2022-08-20T05:08:11;14.18;;;12.88;;
13171;SDS011;6651;53.200;10.432;2022-08-20T05:10:38;12.93;;;11.77;;
13171;SDS011;6651;53.200;10.432;2022-08-20T05:13:05;13.10;;;11.88;;
13171;SDS011;6651;53.200;10.432;2022-08-20T05:15:32;14.02;;;12.68;;
13171;SDS011;6651;53.200;10.432;2022-08-20T05:18:00;14.10;;;12.90;;
13171;SDS011;6651;53.200;10.432;2022-08-20T05:20:30;11.98;;;10.88;;
13171;SDS011;6651;53.200;10.432;2022-08-20T05:22:58;13.38;;;12.02;;
13171;SDS011;6651;53.200;10.432;2022-08-20T05:25:25;13.30;;;11.95;;
13171;SDS011;6651;53.200;10.432;2022-08-20T05:28:09;13.00;;;11.80;;
13171;SDS011;6651;53.200;10.432;2022-08-20T05:30:40;11.77;;;10.65;;
13171;SDS011;6651;53.200;10.432;2022-08-20T05:33:09;11.43;;;10.27;;
13171;SDS011;6651;53.200;10.432;2022-08-20T05:35:36;12.27;;;11.05;;
13171;SDS011;6651;53.200;10.432;2022-08-20T05:38:03;11.23;;;10.00;;
13171;SDS011;6651;53.200;10.432;2022-08-20T05:40:33;12.48;;;10.25;;
13171;SDS011;6651;53.200;10.432;2022-08-20T05:42:59;12.75;;;10.40;;
13171;SDS011;6651;53.200;10.432;2022-08-20T05:45:28;11.57;;;10.48;;
13171;SDS011;6651;53.200;10.432;2022-08-20T05:47:54;11.95;;;10.75;;
13171;SDS011;6651;53.200;10.432;2022-08-20T05:50:20;11.38;;;10.25;;
13171;SDS011;6651;53.200;10.432;2022-08-20T05:52:45;11.75;;;10.55;;
13171;SDS011;6651;53.200;10.432;2022-08-20T05:55:11;11.68;;;10.52;;
13171;SDS011;6651;53.200;10.432;2022-08-20T05:57:38;12.68;;;11.40;;
13171;SDS011;6651;53.200;10.432;2022-08-20T06:00:06;12.85;;;11.55;;
13171;SDS011;6651;53.200;10.432;2022-08-20T06:02:34;13.32;;;12.02;;
13171;SDS011;6651;53.200;10.432;2022-08-20T06:05:18;13.73;;;10.80;;
13171;SDS011;6651;53.200;10.432;2022-08-20T06:07:44;11.55;;;10.35;;
13171;SDS011;6651;53.200;10.432;2022-08-20T06:10:10;10.98;;;9.88;;
13171;SDS011;6651;53.200;10.432;2022-08-20T06:12:36;12.68;;;11.35;;
13171;SDS011;6651;53.200;10.432;2022-08-20T06:15:05;13.45;;;12.05;;
13171;SDS011;6651;53.200;10.432;2022-08-20T06:17:32;11.32;;;10.32;;
13171;SDS011;6651;53.200;10.432;2022-08-20T06:19:58;12.63;;;11.23;;
13171;SDS011;6651;53.200;10.432;2022-08-20T06:22:27;12.32;;;11.13;;
13171;SDS011;6651;53.200;10.432;2022-08-20T06:24:53;11.98;;;10.73;;
13171;SDS011;6651;53.200;10.432;2022-08-20T06:27:19;11.00;;;9.90;;
13171;SDS011;6651;53.200;10.432;2022-08-20T06:29:45;11.18;;;10.00;;
13171;SDS011;6651;53.200;10.432;2022-08-20T06:32:11;10.80;;;9.70;;
13171;SDS011;6651;53.200;10.432;2022-08-20T06:34:38;10.10;;;9.10;;
13171;SDS011;6651;53.200;10.432;2022-08-20T06:37:12;11.25;;;10.15;;
13171;SDS011;6651;53.200;10.432;2022-08-20T06:39:40;10.90;;;9.80;;
13171;SDS011;6651;53.200;10.432;2022-08-20T06:42:06;10.10;;;8.48;;
13171;SDS011;6651;53.200;10.432;2022-08-20T06:44:31;10.48;;;9.35;;
13171;SDS011;6651;53.200;10.432;2022-08-20T06:47:00;9.10;;;8.20;;
13171;SDS011;6651;53.200;10.432;2022-08-20T06:49:28;8.65;;;7.70;;
13171;SDS011;6651;53.200;10.432;2022-08-20T06:51:54;9.90;;;7.72;;
13171;SDS011;6651;53.200;10.432;2022-08-20T06:54:20;7.95;;;7.15;;
13171;SDS011;6651;53.200;10.432;2022-08-20T06:56:46;7.47;;;6.40;;
13171;SDS011;6651;53.200;10.432;2022-08-20T06:59:13;7.40;;;6.18;;
13171;SDS011;6651;53.200;10.432;2022-08-20T07:01:38;6.68;;;5.97;;
13171;SDS011;6651;53.200;10.432;2022-08-20T07:04:04;7.40;;;5.93;;
13171;SDS011;6651;53.200;10.432;2022-08-20T07:06:32;7.40;;;6.18;;
13171;SDS011;6651;53.200;10.432;2022-08-20T07:08:58;6.68;;;6.07;;
13171;SDS011;6651;53.200;10.432;2022-08-20T07:11:24;8.68;;;5.85;;
13171;SDS011;6651;53.200;10.432;2022-08-20T07:13:50;7.10;;;5.90;;
13171;SDS011;6651;53.200;10.432;2022-08-20T07:16:16;7.47;;;6.43;;
13171;SDS011;6651;53.200;10.432;2022-08-20T07:18:42;6.82;;;5.93;;
13171;SDS011;6651;53.200;10.432;2022-08-20T07:21:08;9.57;;;5.07;;
13171;SDS011;6651;53.200;10.432;2022-08-20T07:23:33;5.88;;;5.38;;
13171;SDS011;6651;53.200;10.432;2022-08-20T07:26:00;6.20;;;5.60;;
13171;SDS011;6651;53.200;10.432;2022-08-20T07:28:27;6.40;;;5.80;;
13171;SDS011;6651;53.200;10.432;2022-08-20T07:30:54;8.13;;;6.72;;
13171;SDS011;6651;53.200;10.432;2022-08-20T07:33:39;8.18;;;7.47;;
13171;SDS011;6651;53.200;10.432;2022-08-20T07:36:05;8.57;;;7.72;;
13171;SDS011;6651;53.200;10.432;2022-08-20T07:38:32;9.13;;;8.00;;
13171;SDS011;6651;53.200;10.432;2022-08-20T07:41:06;9.88;;;8.82;;
13171;SDS011;6651;53.200;10.432;2022-08-20T07:43:36;8.75;;;7.95;;
13171;SDS011;6651;53.200;10.432;2022-08-20T07:46:03;9.07;;;8.18;;
13171;SDS011;6651;53.200;10.432;2022-08-20T07:48:33;10.30;;;9.35;;
13171;SDS011;6651;53.200;10.432;2022-08-20T07:51:04;11.48;;;9.30;;
13171;SDS011;6651;53.200;10.432;2022-08-20T07:53:31;11.32;;;9.90;;
13171;SDS011;6651;53.200;10.432;2022-08-20T07:55:59;11.25;;;9.95;;
13171;SDS011;6651;53.200;10.432;2022-08-20T07:58:25;9.25;;;8.35;;
13171;SDS011;6651;53.200;10.432;2022-08-20T08:00:51;10.40;;;9.40;;
13171;SDS011;6651;53.200;10.432;2022-08-20T08:03:16;11.77;;;10.68;;
13171;SDS011;6651;53.200;10.432;2022-08-20T08:05:44;10.75;;;9.73;;
13171;SDS011;6651;53.200;10.432;2022-08-20T08:08:17;11.60;;;10.05;;
13171;SDS011;6651;53.200;10.432;2022-08-20T08:10:50;9.88;;;8.85;;
13171;SDS011;6651;53.200;10.432;2022-08-20T08:13:19;10.65;;;8.38;;
13171;SDS011;6651;53.200;10.432;2022-08-20T08:15:50;10.80;;;9.75;;
13171;SDS011;6651;53.200;10.432;2022-08-20T08:18:18;11.40;;;9.38;;
13171;SDS011;6651;53.200;10.432;2022-08-20T08:20:48;10.93;;;9.38;;
13171;SDS011;6651;53.200;10.432;2022-08-20T08:23:18;8.43;;;7.63;;
13171;SDS011;6651;53.200;10.432;2022-08-20T08:25:46;10.10;;;9.10;;
13171;SDS011;6651;53.200;10.432;2022-08-20T08:28:13;10.00;;;8.38;;
13171;SDS011;6651;53.200;10.432;2022-08-20T08:30:40;10.02;;;8.50;;
13171;SDS011;6651;53.200;10.432;2022-08-20T08:33:07;8.32;;;7.43;;
13171;SDS011;6651;53.200;10.432;2022-08-20T08:35:51;8.23;;;7.35;;
13171;SDS011;6651;53.200;10.432;2022-08-20T08:38:18;8.45;;;7.30;;
13171;SDS011;6651;53.200;10.432;2022-08-20T08:40:45;7.50;;;6.60;;
13171;SDS011;6651;53.200;10.432;2022-08-20T08:43:12;8.27;;;7.32;;
13171;SDS011;6651;53.200;10.432;2022-08-20T08:45:43;6.28;;;5.68;;
13171;SDS011;6651;53.200;10.432;2022-08-20T08:48:12;6.88;;;6.18;;
13171;SDS011;6651;53.200;10.432;2022-08-20T08:50:40;6.82;;;5.43;;
13171;SDS011;6651;53.200;10.432;2022-08-20T08:53:10;7.78;;;5.78;;
13171;SDS011;6651;53.200;10.432;2022-08-20T08:55:46;6.95;;;5.30;;
13171;SDS011;6651;53.200;10.432;2022-08-20T08:58:12;6.05;;;5.20;;
13171;SDS011;6651;53.200;10.432;2022-08-20T09:00:37;5.25;;;4.63;;
13171;SDS011;6651;53.200;10.432;2022-08-20T09:03:07;6.13;;;5.20;;
13171;SDS011;6651;53.200;10.432;2022-08-20T09:05:36;6.15;;;4.82;;
13171;SDS011;6651;53.200;10.432;2022-08-20T09:08:09;5.30;;;4.50;;
13171;SDS011;6651;53.200;10.432;2022-08-20T09:10:39;4.97;;;4.30;;
13171;SDS011;6651;53.200;10.432;2022-08-20T09:13:06;6.90;;;4.88;;
13171;SDS011;6651;53.200;10.432;2022-08-20T09:15:33;5.72;;;4.53;;
13171;SDS011;6651;53.200;10.432;2022-08-20T09:17:58;5.70;;;4.45;;
13171;SDS011;6651;53.200;10.432;2022-08-20T09:20:24;4.15;;;3.75;;
13171;SDS011;6651;53.200;10.432;2022-08-20T09:22:50;5.53;;;3.72;;
13171;SDS011;6651;53.200;10.432;2022-08-20T09:25:16;7.10;;;4.57;;
13171;SDS011;6651;53.200;10.432;2022-08-20T09:27:43;4.13;;;3.72;;
13171;SDS011;6651;53.200;10.432;2022-08-20T09:30:09;4.95;;;3.67;;
13171;SDS011;6651;53.200;10.432;2022-08-20T09:32:36;4.97;;;3.50;;
13171;SDS011;6651;53.200;10.432;2022-08-20T09:35:01;6.82;;;4.13;;
13171;SDS011;6651;53.200;10.432;2022-08-20T09:37:28;4.22;;;3.53;;
13171;SDS011;6651;53.200;10.432;2022-08-20T09:39:55;4.43;;;2.90;;
13171;SDS011;6651;53.200;10.432;2022-08-20T09:42:31;2.90;;;2.45;;
13171;SDS011;6651;53.200;10.432;2022-08-20T09:44:58;4.00;;;2.70;;
13171;SDS011;6651;53.200;10.432;2022-08-20T09:47:24;3.45;;;2.70;;
13171;SDS011;6651;53.200;10.432;2022-08-20T09:49:50;4.43;;;3.50;;
13171;SDS011;6651;53.200;10.432;2022-08-20T09:52:20;4.90;;;3.22;;
13171;SDS011;6651;53.200;10.432;2022-08-20T09:54:46;4.40;;;3.38;;
13171;SDS011;6651;53.200;10.432;2022-08-20T09:57:12;5.15;;;3.50;;
13171;SDS011;6651;53.200;10.432;2022-08-20T09:59:39;4.88;;;3.53;;
13171;SDS011;6651;53.200;10.432;2022-08-20T10:02:05;4.25;;;3.35;;
13171;SDS011;6651;53.200;10.432;2022-08-20T10:04:31;4.18;;;3.60;;
13171;SDS011;6651;53.200;10.432;2022-08-20T10:06:56;5.68;;;3.17;;
13171;SDS011;6651;53.200;10.432;2022-08-20T10:09:22;5.32;;;3.25;;
13171;SDS011;6651;53.200;10.432;2022-08-20T10:11:48;3.35;;;2.85;;
13171;SDS011;6651;53.200;10.432;2022-08-20T10:14:13;3.75;;;3.30;;
13171;SDS011;6651;53.200;10.432;2022-08-20T10:16:40;4.10;;;3.28;;
13171;SDS011;6651;53.200;10.432;2022-08-20T10:19:07;4.18;;;3.10;;
13171;SDS011;6651;53.200;10.432;2022-08-20T10:21:32;4.22;;;3.00;;
13171;SDS011;6651;53.200;10.432;2022-08-20T10:23:58;5.45;;;3.70;;
13171;SDS011;6651;53.200;10.432;2022-08-20T10:26:24;5.05;;;3.40;;
13171;SDS011;6651;53.200;10.432;2022-08-20T10:28:50;4.95;;;3.55;;
13171;SDS011;6651;53.200;10.432;2022-08-20T10:31:16;5.68;;;3.15;;
13171;SDS011;6651;53.200;10.432;2022-08-20T10:33:42;7.68;;;3.25;;
13171;SDS011;6651;53.200;10.432;2022-08-20T10:36:09;3.03;;;2.50;;
13171;SDS011;6651;53.200;10.432;2022-08-20T10:38:37;4.60;;;2.80;;
13171;SDS011;6651;53.200;10.432;2022-08-20T10:41:03;5.82;;;2.88;;
13171;SDS011;6651;53.200;10.432;2022-08-20T10:43:29;4.80;;;2.60;;
13171;SDS011;6651;53.200;10.432;2022-08-20T10:45:55;5.35;;;2.47;;
13171;SDS011;6651;53.200;10.432;2022-08-20T10:48:21;4.95;;;2.88;;
13171;SDS011;6651;53.200;10.432;2022-08-20T10:50:47;4.40;;;2.50;;
13171;SDS011;6651;53.200;10.432;2022-08-20T10:53:13;5.28;;;2.90;;
13171;SDS011;6651;53.200;10.432;2022-08-20T10:55:39;4.10;;;2.70;;
13171;SDS011;6651;53.200;10.432;2022-08-20T10:58:05;5.80;;;2.50;;
13171;SDS011;6651;53.200;10.432;2022-08-20T11:00:31;3.78;;;2.63;;
13171;SDS011;6651;53.200;10.432;2022-08-20T11:02:57;5.28;;;2.70;;
13171;SDS011;6651;53.200;10.432;2022-08-20T11:05:23;3.80;;;2.60;;
13171;SDS011;6651;53.200;10.432;2022-08-20T11:07:49;3.90;;;2.60;;
13171;SDS011;6651;53.200;10.432;2022-08-20T11:10:14;4.55;;;2.65;;
13171;SDS011;6651;53.200;10.432;2022-08-20T11:12:40;4.47;;;2.60;;
13171;SDS011;6651;53.200;10.432;2022-08-20T11:15:06;4.63;;;2.65;;
13171;SDS011;6651;53.200;10.432;2022-08-20T11:17:33;5.30;;;2.58;;
13171;SDS011;6651;53.200;10.432;2022-08-20T11:20:00;5.03;;;2.63;;
13171;SDS011;6651;53.200;10.432;2022-08-20T11:22:28;3.05;;;2.40;;
13171;SDS011;6651;53.200;10.432;2022-08-20T11:24:54;3.88;;;2.60;;
13171;SDS011;6651;53.200;10.432;2022-08-20T11:27:23;4.55;;;2.60;;
13171;SDS011;6651;53.200;10.432;2022-08-20T11:29:51;4.57;;;2.33;;
13171;SDS011;6651;53.200;10.432;2022-08-20T11:32:18;4.40;;;2.38;;
13171;SDS011;6651;53.200;10.432;2022-08-20T11:34:44;3.35;;;2.20;;
13171;SDS011;6651;53.200;10.432;2022-08-20T11:37:10;4.82;;;2.47;;
13171;SDS011;6651;53.200;10.432;2022-08-20T11:39:37;4.38;;;2.20;;
13171;SDS011;6651;53.200;10.432;2022-08-20T11:42:03;4.32;;;2.40;;
13171;SDS011;6651;53.200;10.432;2022-08-20T11:44:29;4.03;;;2.40;;
13171;SDS011;6651;53.200;10.432;2022-08-20T11:46:55;6.72;;;2.55;;
13171;SDS011;6651;53.200;10.432;2022-08-20T11:49:26;3.90;;;2.30;;
13171;SDS011;6651;53.200;10.432;2022-08-20T11:51:52;5.00;;;2.17;;
13171;SDS011;6651;53.200;10.432;2022-08-20T11:54:18;3.35;;;2.33;;
13171;SDS011;6651;53.200;10.432;2022-08-20T11:56:44;4.95;;;2.40;;
13171;SDS011;6651;53.200;10.432;2022-08-20T11:59:09;5.65;;;2.67;;
13171;SDS011;6651;53.200;10.432;2022-08-20T12:01:35;5.88;;;2.90;;
13171;SDS011;6651;53.200;10.432;2022-08-20T12:04:01;4.68;;;2.25;;
13171;SDS011;6651;53.200;10.432;2022-08-20T12:06:26;3.00;;;2.38;;
13171;SDS011;6651;53.200;10.432;2022-08-20T12:08:52;5.80;;;3.28;;
13171;SDS011;6651;53.200;10.432;2022-08-20T12:11:18;5.97;;;2.75;;
13171;SDS011;6651;53.200;10.432;2022-08-20T12:13:44;5.78;;;2.83;;
13171;SDS011;6651;53.200;10.432;2022-08-20T12:16:09;6.22;;;2.70;;
13171;SDS011;6651;53.200;10.432;2022-08-20T12:18:38;2.95;;;2.42;;
13171;SDS011;6651;53.200;10.432;2022-08-20T12:21:03;6.10;;;2.90;;
13171;SDS011;6651;53.200;10.432;2022-08-20T12:23:29;4.65;;;2.65;;
13171;SDS011;6651;53.200;10.432;2022-08-20T12:25:55;3.58;;;2.70;;
13171;SDS011;6651;53.200;10.432;2022-08-20T12:28:20;3.63;;;2.45;;
13171;SDS011;6651;53.200;10.432;2022-08-20T12:30:46;4.45;;;2.33;;
13171;SDS011;6651;53.200;10.432;2022-08-20T12:33:12;4.30;;;2.40;;
13171;SDS011;6651;53.200;10.432;2022-08-20T12:35:38;3.80;;;2.45;;
13171;SDS011;6651;53.200;10.432;2022-08-20T12:38:05;3.10;;;2.20;;
13171;SDS011;6651;53.200;10.432;2022-08-20T12:40:30;3.95;;;2.58;;
13171;SDS011;6651;53.200;10.432;2022-08-20T12:42:56;5.93;;;2.20;;
13171;SDS011;6651;53.200;10.432;2022-08-20T12:45:23;3.83;;;2.10;;
13171;SDS011;6651;53.200;10.432;2022-08-20T12:47:49;4.20;;;2.35;;
13171;SDS011;6651;53.200;10.432;2022-08-20T12:50:19;4.57;;;2.33;;
13171;SDS011;6651;53.200;10.432;2022-08-20T12:52:47;3.00;;;1.85;;
13171;SDS011;6651;53.200;10.432;2022-08-20T12:55:15;3.72;;;1.98;;
13171;SDS011;6651;53.200;10.432;2022-08-20T12:57:44;4.30;;;2.50;;
13171;SDS011;6651;53.200;10.432;2022-08-20T13:02:37;4.72;;;2.35;;
13171;SDS011;6651;53.200;10.432;2022-08-20T13:05:05;5.38;;;2.28;;
13171;SDS011;6651;53.200;10.432;2022-08-20T13:07:35;4.38;;;2.20;;
13171;SDS011;6651;53.200;10.432;2022-08-20T13:10:02;4.30;;;2.20;;
13171;SDS011;6651;53.200;10.432;2022-08-20T13:12:30;5.82;;;2.38;;
13171;SDS011;6651;53.200;10.432;2022-08-20T13:14:55;7.28;;;2.53;;
13171;SDS011;6651;53.200;10.432;2022-08-20T13:17:21;4.45;;;2.45;;
13171;SDS011;6651;53.200;10.432;2022-08-20T13:19:47;4.22;;;2.30;;
13171;SDS011;6651;53.200;10.432;2022-08-20T13:22:13;6.45;;;2.50;;
13171;SDS011;6651;53.200;10.432;2022-08-20T13:24:39;6.40;;;2.55;;
13171;SDS011;6651;53.200;10.432;2022-08-20T13:27:07;4.13;;;2.22;;
13171;SDS011;6651;53.200;10.432;2022-08-20T13:29:44;4.72;;;2.40;;
13171;SDS011;6651;53.200;10.432;2022-08-20T13:32:13;6.40;;;2.50;;
13171;SDS011;6651;53.200;10.432;2022-08-20T13:34:39;5.25;;;2.17;;
13171;SDS011;6651;53.200;10.432;2022-08-20T13:37:15;5.95;;;2.33;;
13171;SDS011;6651;53.200;10.432;2022-08-20T13:39:52;4.43;;;2.28;;
13171;SDS011;6651;53.200;10.432;2022-08-20T13:42:19;5.30;;;2.45;;
13171;SDS011;6651;53.200;10.432;2022-08-20T13:44:45;3.08;;;2.00;;
13171;SDS011;6651;53.200;10.432;2022-08-20T13:47:15;4.30;;;2.20;;
13171;SDS011;6651;53.200;10.432;2022-08-20T13:49:59;7.32;;;2.40;;
13171;SDS011;6651;53.200;10.432;2022-08-20T13:52:32;4.78;;;2.35;;
13171;SDS011;6651;53.200;10.432;2022-08-20T13:54:58;5.85;;;2.47;;
13171;SDS011;6651;53.200;10.432;2022-08-20T13:57:24;5.13;;;2.40;;
13171;SDS011;6651;53.200;10.432;2022-08-20T13:59:51;3.40;;;2.15;;
13171;SDS011;6651;53.200;10.432;2022-08-20T14:02:19;5.05;;;2.10;;
13171;SDS011;6651;53.200;10.432;2022-08-20T14:04:46;7.22;;;2.38;;
13171;SDS011;6651;53.200;10.432;2022-08-20T14:09:44;5.30;;;2.50;;
13171;SDS011;6651;53.200;10.432;2022-08-20T14:12:15;5.22;;;2.70;;
13171;SDS011;6651;53.200;10.432;2022-08-20T14:14:41;7.80;;;2.83;;
13171;SDS011;6651;53.200;10.432;2022-08-20T14:17:20;5.30;;;2.30;;
13171;SDS011;6651;53.200;10.432;2022-08-20T14:19:55;4.80;;;2.15;;
13171;SDS011;6651;53.200;10.432;2022-08-20T14:22:23;6.00;;;2.10;;
13171;SDS011;6651;53.200;10.432;2022-08-20T14:24:49;5.03;;;2.20;;
13171;SDS011;6651;53.200;10.432;2022-08-20T14:27:17;4.53;;;2.22;;
13171;SDS011;6651;53.200;10.432;2022-08-20T14:29:44;3.65;;;1.92;;
13171;SDS011;6651;53.200;10.432;2022-08-20T14:32:11;4.95;;;2.00;;
13171;SDS011;6651;53.200;10.432;2022-08-20T14:34:37;6.82;;;2.47;;
13171;SDS011;6651;53.200;10.432;2022-08-20T14:37:15;5.95;;;2.10;;
13171;SDS011;6651;53.200;10.432;2022-08-20T14:39:52;5.97;;;2.20;;
13171;SDS011;6651;53.200;10.432;2022-08-20T14:42:23;5.05;;;2.05;;
13171;SDS011;6651;53.200;10.432;2022-08-20T14:44:52;5.55;;;2.10;;
13171;SDS011;6651;53.200;10.432;2022-08-20T14:47:20;5.72;;;2.40;;
13171;SDS011;6651;53.200;10.432;2022-08-20T14:49:55;4.80;;;1.95;;
13171;SDS011;6651;53.200;10.432;2022-08-20T14:52:26;5.00;;;2.10;;